sensor_id;sensor_type;location;lat;lon;timestamp;P1;durP1;ratioP1;P2;durP2;ratioP2
26042;SDS011;13818;52.156;5.382;2022-10-12T00:00:57;13.30;;;4.85;;
26042;SDS011;13818;52.156;5.382;2022-10-12T00:03:24;14.00;;;5.30;;
26042;SDS011;13818;52.156;5.382;2022-10-12T00:05:58;16.17;;;5.13;;
26042;SDS011;13818;52.156;5.382;2022-10-12T00:08:25;20.40;;;6.18;;
26042;SDS011;13818;52.156;5.382;2022-10-12T00:10:52;14.77;;;4.80;;
26042;SDS011;13818;52.156;5.382;2022-10-12T00:13:19;12.98;;;5.07;;
26042;SDS011;13818;52.156;5.382;2022-10-12T00:15:46;19.45;;;6.07;;
26042;SDS011;13818;52.156;5.382;2022-10-12T00:18:13;13.70;;;4.88;;
26042;SDS011;13818;52.156;5.382;2022-10-12T00:20:40;13.75;;;4.55;;
26042;SDS011;13818;52.156;5.382;2022-10-12T00:23:06;15.25;;;4.90;;
26042;SDS011;13818;52.156;5.382;2022-10-12T00:25:34;20.05;;;5.50;;
26042;SDS011;13818;52.156;5.382;2022-10-12T00:28:01;12.50;;;4.80;;
26042;SDS011;13818;52.156;5.382;2022-10-12T00:30:27;17.95;;;5.47;;
26042;SDS011;13818;52.156;5.382;2022-10-12T00:32:56;18.73;;;6.35;;
26042;SDS011;13818;52.156;5.382;2022-10-12T00:35:23;20.77;;;5.10;;
26042;SDS011;13818;52.156;5.382;2022-10-12T00:37:52;15.68;;;5.78;;
26042;SDS011;13818;52.156;5.382;2022-10-12T00:40:18;21.02;;;6.43;;
26042;SDS011;13818;52.156;5.382;2022-10-12T00:42:45;16.20;;;6.38;;
26042;SDS011;13818;52.156;5.382;2022-10-12T00:45:13;10.73;;;5.03;;
26042;SDS011;13818;52.156;5.382;2022-10-12T00:47:40;17.67;;;5.80;;
26042;SDS011;13818;52.156;5.382;2022-10-12T00:50:16;8.65;;;4.13;;
26042;SDS011;13818;52.156;5.382;2022-10-12T00:52:48;18.10;;;5.93;;
26042;SDS011;13818;52.156;5.382;2022-10-12T00:55:18;11.98;;;5.18;;
26042;SDS011;13818;52.156;5.382;2022-10-12T00:57:47;15.95;;;5.18;;
26042;SDS011;13818;52.156;5.382;2022-10-12T01:00:17;13.75;;;4.97;;
26042;SDS011;13818;52.156;5.382;2022-10-12T01:02:44;16.92;;;4.88;;
26042;SDS011;13818;52.156;5.382;2022-10-12T01:05:12;17.75;;;4.85;;
26042;SDS011;13818;52.156;5.382;2022-10-12T01:07:40;17.95;;;5.38;;
26042;SDS011;13818;52.156;5.382;2022-10-12T01:10:07;14.82;;;5.25;;
26042;SDS011;13818;52.156;5.382;2022-10-12T01:12:34;13.82;;;4.65;;
26042;SDS011;13818;52.156;5.382;2022-10-12T01:15:02;11.32;;;5.03;;
26042;SDS011;13818;52.156;5.382;2022-10-12T01:17:33;12.25;;;5.15;;
26042;SDS011;13818;52.156;5.382;2022-10-12T01:20:14;13.80;;;5.57;;
26042;SDS011;13818;52.156;5.382;2022-10-12T01:23:19;14.40;;;6.07;;
26042;SDS011;13818;52.156;5.382;2022-10-12T01:26:15;12.68;;;5.28;;
26042;SDS011;13818;52.156;5.382;2022-10-12T01:28:57;17.73;;;6.20;;
26042;SDS011;13818;52.156;5.382;2022-10-12T01:31:38;22.40;;;6.35;;
26042;SDS011;13818;52.156;5.382;2022-10-12T01:34:11;18.25;;;6.75;;
26042;SDS011;13818;52.156;5.382;2022-10-12T01:36:43;21.42;;;7.13;;
26042;SDS011;13818;52.156;5.382;2022-10-12T01:39:14;14.23;;;6.35;;
26042;SDS011;13818;52.156;5.382;2022-10-12T01:41:46;16.88;;;7.38;;
26042;SDS011;13818;52.156;5.382;2022-10-12T01:44:18;22.55;;;6.35;;
26042;SDS011;13818;52.156;5.382;2022-10-12T01:46:47;16.15;;;7.45;;
26042;SDS011;13818;52.156;5.382;2022-10-12T01:49:14;19.55;;;7.80;;
26042;SDS011;13818;52.156;5.382;2022-10-12T01:51:48;18.38;;;7.40;;
26042;SDS011;13818;52.156;5.382;2022-10-12T01:56:54;23.10;;;7.53;;
26042;SDS011;13818;52.156;5.382;2022-10-12T01:59:30;16.92;;;7.15;;
26042;SDS011;13818;52.156;5.382;2022-10-12T02:02:10;13.75;;;6.75;;
26042;SDS011;13818;52.156;5.382;2022-10-12T02:04:43;15.98;;;6.63;;
26042;SDS011;13818;52.156;5.382;2022-10-12T02:07:15;17.48;;;6.80;;
26042;SDS011;13818;52.156;5.382;2022-10-12T02:09:46;17.52;;;6.78;;
26042;SDS011;13818;52.156;5.382;2022-10-12T02:12:15;19.83;;;7.47;;
26042;SDS011;13818;52.156;5.382;2022-10-12T02:14:45;16.55;;;6.45;;
26042;SDS011;13818;52.156;5.382;2022-10-12T02:17:16;20.23;;;7.13;;
26042;SDS011;13818;52.156;5.382;2022-10-12T02:19:46;20.42;;;6.72;;
26042;SDS011;13818;52.156;5.382;2022-10-12T02:22:15;19.02;;;6.40;;
26042;SDS011;13818;52.156;5.382;2022-10-12T02:24:43;12.60;;;5.80;;
26042;SDS011;13818;52.156;5.382;2022-10-12T02:27:12;19.40;;;6.18;;
26042;SDS011;13818;52.156;5.382;2022-10-12T02:29:41;17.38;;;6.60;;
26042;SDS011;13818;52.156;5.382;2022-10-12T02:32:14;16.95;;;6.35;;
26042;SDS011;13818;52.156;5.382;2022-10-12T02:34:46;12.45;;;6.35;;
26042;SDS011;13818;52.156;5.382;2022-10-12T02:37:20;12.70;;;6.03;;
26042;SDS011;13818;52.156;5.382;2022-10-12T02:39:57;14.65;;;6.53;;
26042;SDS011;13818;52.156;5.382;2022-10-12T02:42:29;19.10;;;5.97;;
26042;SDS011;13818;52.156;5.382;2022-10-12T02:44:59;16.85;;;6.47;;
26042;SDS011;13818;52.156;5.382;2022-10-12T02:47:31;11.88;;;6.30;;
26042;SDS011;13818;52.156;5.382;2022-10-12T02:50:00;15.23;;;6.28;;
26042;SDS011;13818;52.156;5.382;2022-10-12T02:52:28;11.75;;;5.57;;
26042;SDS011;13818;52.156;5.382;2022-10-12T02:54:56;15.38;;;7.40;;
26042;SDS011;13818;52.156;5.382;2022-10-12T02:57:23;19.83;;;6.20;;
26042;SDS011;13818;52.156;5.382;2022-10-12T02:59:49;14.55;;;6.03;;
26042;SDS011;13818;52.156;5.382;2022-10-12T03:02:16;12.57;;;6.60;;
26042;SDS011;13818;52.156;5.382;2022-10-12T03:04:44;16.13;;;6.18;;
26042;SDS011;13818;52.156;5.382;2022-10-12T03:07:10;11.63;;;6.15;;
26042;SDS011;13818;52.156;5.382;2022-10-12T03:09:36;15.85;;;6.70;;
26042;SDS011;13818;52.156;5.382;2022-10-12T03:12:03;16.15;;;5.75;;
26042;SDS011;13818;52.156;5.382;2022-10-12T03:14:30;18.23;;;6.45;;
26042;SDS011;13818;52.156;5.382;2022-10-12T03:16:58;16.25;;;6.15;;
26042;SDS011;13818;52.156;5.382;2022-10-12T03:19:24;13.63;;;6.28;;
26042;SDS011;13818;52.156;5.382;2022-10-12T03:21:52;13.63;;;6.85;;
26042;SDS011;13818;52.156;5.382;2022-10-12T03:24:18;13.23;;;6.03;;
26042;SDS011;13818;52.156;5.382;2022-10-12T03:26:45;17.88;;;6.55;;
26042;SDS011;13818;52.156;5.382;2022-10-12T03:29:11;12.55;;;6.07;;
26042;SDS011;13818;52.156;5.382;2022-10-12T03:31:38;17.38;;;6.15;;
26042;SDS011;13818;52.156;5.382;2022-10-12T03:34:04;20.40;;;6.15;;
26042;SDS011;13818;52.156;5.382;2022-10-12T03:36:31;14.25;;;6.38;;
26042;SDS011;13818;52.156;5.382;2022-10-12T03:38:59;13.68;;;5.72;;
26042;SDS011;13818;52.156;5.382;2022-10-12T03:41:25;19.98;;;6.13;;
26042;SDS011;13818;52.156;5.382;2022-10-12T03:43:52;18.85;;;6.03;;
26042;SDS011;13818;52.156;5.382;2022-10-12T03:46:19;20.83;;;6.03;;
26042;SDS011;13818;52.156;5.382;2022-10-12T03:48:45;15.70;;;6.05;;
26042;SDS011;13818;52.156;5.382;2022-10-12T03:51:12;13.30;;;6.60;;
26042;SDS011;13818;52.156;5.382;2022-10-12T03:53:38;16.45;;;6.60;;
26042;SDS011;13818;52.156;5.382;2022-10-12T03:56:06;14.15;;;7.30;;
26042;SDS011;13818;52.156;5.382;2022-10-12T03:58:33;15.60;;;6.28;;
26042;SDS011;13818;52.156;5.382;2022-10-12T04:00:59;17.02;;;6.75;;
26042;SDS011;13818;52.156;5.382;2022-10-12T04:03:26;14.20;;;6.40;;
26042;SDS011;13818;52.156;5.382;2022-10-12T04:05:52;14.70;;;6.55;;
26042;SDS011;13818;52.156;5.382;2022-10-12T04:08:19;18.67;;;6.80;;
26042;SDS011;13818;52.156;5.382;2022-10-12T04:10:46;12.43;;;5.80;;
26042;SDS011;13818;52.156;5.382;2022-10-12T04:13:15;12.20;;;5.85;;
26042;SDS011;13818;52.156;5.382;2022-10-12T04:15:42;19.77;;;6.90;;
26042;SDS011;13818;52.156;5.382;2022-10-12T04:18:08;15.52;;;6.47;;
26042;SDS011;13818;52.156;5.382;2022-10-12T04:20:35;11.45;;;5.40;;
26042;SDS011;13818;52.156;5.382;2022-10-12T04:23:01;14.02;;;5.22;;
26042;SDS011;13818;52.156;5.382;2022-10-12T04:25:28;10.02;;;5.13;;
26042;SDS011;13818;52.156;5.382;2022-10-12T04:27:54;13.98;;;6.05;;
26042;SDS011;13818;52.156;5.382;2022-10-12T04:30:22;15.10;;;6.03;;
26042;SDS011;13818;52.156;5.382;2022-10-12T04:32:48;14.73;;;5.88;;
26042;SDS011;13818;52.156;5.382;2022-10-12T04:35:16;19.20;;;6.53;;
26042;SDS011;13818;52.156;5.382;2022-10-12T04:37:42;13.93;;;5.55;;
26042;SDS011;13818;52.156;5.382;2022-10-12T04:40:09;13.55;;;5.50;;
26042;SDS011;13818;52.156;5.382;2022-10-12T04:42:36;18.13;;;5.78;;
26042;SDS011;13818;52.156;5.382;2022-10-12T04:45:02;17.08;;;6.93;;
26042;SDS011;13818;52.156;5.382;2022-10-12T04:47:31;17.73;;;5.82;;
26042;SDS011;13818;52.156;5.382;2022-10-12T04:49:58;12.60;;;5.85;;
26042;SDS011;13818;52.156;5.382;2022-10-12T04:52:25;12.43;;;6.00;;
26042;SDS011;13818;52.156;5.382;2022-10-12T04:54:51;12.55;;;5.47;;
26042;SDS011;13818;52.156;5.382;2022-10-12T04:57:18;16.88;;;5.63;;
26042;SDS011;13818;52.156;5.382;2022-10-12T04:59:44;14.45;;;5.85;;
26042;SDS011;13818;52.156;5.382;2022-10-12T05:02:11;15.82;;;5.63;;
26042;SDS011;13818;52.156;5.382;2022-10-12T05:04:39;10.25;;;5.47;;
26042;SDS011;13818;52.156;5.382;2022-10-12T05:07:05;19.40;;;5.65;;
26042;SDS011;13818;52.156;5.382;2022-10-12T05:09:32;13.73;;;5.55;;
26042;SDS011;13818;52.156;5.382;2022-10-12T05:11:58;18.55;;;5.25;;
26042;SDS011;13818;52.156;5.382;2022-10-12T05:14:25;35.83;;;7.18;;
26042;SDS011;13818;52.156;5.382;2022-10-12T05:16:51;12.73;;;5.45;;
26042;SDS011;13818;52.156;5.382;2022-10-12T05:19:17;15.98;;;5.30;;
26042;SDS011;13818;52.156;5.382;2022-10-12T05:21:45;10.27;;;5.13;;
26042;SDS011;13818;52.156;5.382;2022-10-12T05:24:12;14.18;;;7.00;;
26042;SDS011;13818;52.156;5.382;2022-10-12T05:26:39;14.43;;;5.63;;
26042;SDS011;13818;52.156;5.382;2022-10-12T05:29:05;12.20;;;5.90;;
26042;SDS011;13818;52.156;5.382;2022-10-12T05:31:32;16.45;;;6.68;;
26042;SDS011;13818;52.156;5.382;2022-10-12T05:33:58;15.13;;;5.72;;
26042;SDS011;13818;52.156;5.382;2022-10-12T05:36:25;18.42;;;6.35;;
26042;SDS011;13818;52.156;5.382;2022-10-12T05:38:53;13.38;;;5.60;;
26042;SDS011;13818;52.156;5.382;2022-10-12T05:41:19;13.77;;;5.75;;
26042;SDS011;13818;52.156;5.382;2022-10-12T05:43:46;16.58;;;6.05;;
26042;SDS011;13818;52.156;5.382;2022-10-12T05:46:12;14.52;;;5.40;;
26042;SDS011;13818;52.156;5.382;2022-10-12T05:48:39;8.60;;;5.30;;
26042;SDS011;13818;52.156;5.382;2022-10-12T05:51:05;12.15;;;5.13;;
26042;SDS011;13818;52.156;5.382;2022-10-12T05:53:32;12.55;;;5.13;;
26042;SDS011;13818;52.156;5.382;2022-10-12T05:55:59;17.98;;;6.20;;
26042;SDS011;13818;52.156;5.382;2022-10-12T05:58:27;13.85;;;5.13;;
26042;SDS011;13818;52.156;5.382;2022-10-12T06:00:54;13.45;;;5.70;;
26042;SDS011;13818;52.156;5.382;2022-10-12T06:03:30;14.55;;;6.20;;
26042;SDS011;13818;52.156;5.382;2022-10-12T06:05:57;17.50;;;7.13;;
26042;SDS011;13818;52.156;5.382;2022-10-12T06:08:23;21.85;;;6.55;;
26042;SDS011;13818;52.156;5.382;2022-10-12T06:10:50;20.15;;;6.05;;
26042;SDS011;13818;52.156;5.382;2022-10-12T06:13:18;14.98;;;6.03;;
26042;SDS011;13818;52.156;5.382;2022-10-12T06:15:45;12.05;;;5.03;;
26042;SDS011;13818;52.156;5.382;2022-10-12T06:18:12;17.27;;;6.32;;
26042;SDS011;13818;52.156;5.382;2022-10-12T06:20:40;12.48;;;5.95;;
26042;SDS011;13818;52.156;5.382;2022-10-12T06:23:12;15.50;;;5.20;;
26042;SDS011;13818;52.156;5.382;2022-10-12T06:25:39;16.17;;;6.18;;
26042;SDS011;13818;52.156;5.382;2022-10-12T06:28:05;15.43;;;5.82;;
26042;SDS011;13818;52.156;5.382;2022-10-12T06:30:33;14.43;;;5.38;;
26042;SDS011;13818;52.156;5.382;2022-10-12T06:32:59;9.27;;;4.95;;
26042;SDS011;13818;52.156;5.382;2022-10-12T06:35:26;15.57;;;5.25;;
26042;SDS011;13818;52.156;5.382;2022-10-12T06:37:52;12.65;;;5.68;;
26042;SDS011;13818;52.156;5.382;2022-10-12T06:40:19;13.25;;;5.65;;
26042;SDS011;13818;52.156;5.382;2022-10-12T06:42:46;15.27;;;5.38;;
26042;SDS011;13818;52.156;5.382;2022-10-12T06:45:13;19.60;;;6.03;;
26042;SDS011;13818;52.156;5.382;2022-10-12T06:47:41;15.38;;;5.70;;
26042;SDS011;13818;52.156;5.382;2022-10-12T06:50:08;14.38;;;5.50;;
26042;SDS011;13818;52.156;5.382;2022-10-12T06:52:36;15.43;;;5.47;;
26042;SDS011;13818;52.156;5.382;2022-10-12T06:55:03;14.43;;;5.70;;
26042;SDS011;13818;52.156;5.382;2022-10-12T06:57:30;15.50;;;5.60;;
26042;SDS011;13818;52.156;5.382;2022-10-12T06:59:57;11.65;;;5.53;;
26042;SDS011;13818;52.156;5.382;2022-10-12T07:02:23;16.85;;;6.25;;
26042;SDS011;13818;52.156;5.382;2022-10-12T07:04:51;12.55;;;5.82;;
26042;SDS011;13818;52.156;5.382;2022-10-12T07:07:18;16.15;;;6.00;;
26042;SDS011;13818;52.156;5.382;2022-10-12T07:09:45;14.02;;;5.35;;
26042;SDS011;13818;52.156;5.382;2022-10-12T07:12:11;13.80;;;5.65;;
26042;SDS011;13818;52.156;5.382;2022-10-12T07:14:37;13.88;;;5.63;;
26042;SDS011;13818;52.156;5.382;2022-10-12T07:17:04;16.85;;;5.40;;
26042;SDS011;13818;52.156;5.382;2022-10-12T07:19:30;10.82;;;5.60;;
26042;SDS011;13818;52.156;5.382;2022-10-12T07:21:58;17.58;;;6.07;;
26042;SDS011;13818;52.156;5.382;2022-10-12T07:24:25;15.07;;;5.72;;
26042;SDS011;13818;52.156;5.382;2022-10-12T07:26:59;15.05;;;5.28;;
26042;SDS011;13818;52.156;5.382;2022-10-12T07:29:26;13.80;;;5.68;;
26042;SDS011;13818;52.156;5.382;2022-10-12T07:31:54;20.02;;;7.22;;
26042;SDS011;13818;52.156;5.382;2022-10-12T07:34:20;16.65;;;5.93;;
26042;SDS011;13818;52.156;5.382;2022-10-12T07:36:47;14.00;;;5.43;;
26042;SDS011;13818;52.156;5.382;2022-10-12T07:39:15;13.50;;;6.15;;
26042;SDS011;13818;52.156;5.382;2022-10-12T07:41:41;16.52;;;6.15;;
26042;SDS011;13818;52.156;5.382;2022-10-12T07:44:08;16.80;;;6.97;;
26042;SDS011;13818;52.156;5.382;2022-10-12T07:46:35;16.88;;;6.90;;
26042;SDS011;13818;52.156;5.382;2022-10-12T07:49:01;17.88;;;6.80;;
26042;SDS011;13818;52.156;5.382;2022-10-12T07:51:29;18.77;;;5.88;;
26042;SDS011;13818;52.156;5.382;2022-10-12T07:53:56;19.67;;;7.15;;
26042;SDS011;13818;52.156;5.382;2022-10-12T07:56:25;16.23;;;6.53;;
26042;SDS011;13818;52.156;5.382;2022-10-12T07:58:52;13.95;;;6.95;;
26042;SDS011;13818;52.156;5.382;2022-10-12T08:01:22;15.80;;;5.95;;
26042;SDS011;13818;52.156;5.382;2022-10-12T08:03:50;12.23;;;5.80;;
26042;SDS011;13818;52.156;5.382;2022-10-12T08:06:17;16.15;;;5.93;;
26042;SDS011;13818;52.156;5.382;2022-10-12T08:08:46;22.47;;;6.87;;
26042;SDS011;13818;52.156;5.382;2022-10-12T08:11:14;12.75;;;6.95;;
26042;SDS011;13818;52.156;5.382;2022-10-12T08:13:43;13.77;;;6.00;;
26042;SDS011;13818;52.156;5.382;2022-10-12T08:16:10;13.75;;;6.65;;
26042;SDS011;13818;52.156;5.382;2022-10-12T08:18:38;14.98;;;6.85;;
26042;SDS011;13818;52.156;5.382;2022-10-12T08:21:06;14.05;;;6.35;;
26042;SDS011;13818;52.156;5.382;2022-10-12T08:23:33;10.73;;;5.30;;
26042;SDS011;13818;52.156;5.382;2022-10-12T08:26:01;11.93;;;5.15;;
26042;SDS011;13818;52.156;5.382;2022-10-12T08:28:27;15.77;;;5.95;;
26042;SDS011;13818;52.156;5.382;2022-10-12T08:30:55;16.70;;;5.80;;
26042;SDS011;13818;52.156;5.382;2022-10-12T08:33:22;18.15;;;5.68;;
26042;SDS011;13818;52.156;5.382;2022-10-12T08:35:48;20.73;;;6.47;;
26042;SDS011;13818;52.156;5.382;2022-10-12T08:38:15;20.25;;;5.90;;
26042;SDS011;13818;52.156;5.382;2022-10-12T08:40:44;14.75;;;6.30;;
26042;SDS011;13818;52.156;5.382;2022-10-12T08:43:15;18.05;;;7.40;;
26042;SDS011;13818;52.156;5.382;2022-10-12T08:45:53;20.25;;;6.22;;
26042;SDS011;13818;52.156;5.382;2022-10-12T08:48:25;18.25;;;5.90;;
26042;SDS011;13818;52.156;5.382;2022-10-12T08:50:56;21.60;;;6.25;;
26042;SDS011;13818;52.156;5.382;2022-10-12T08:53:26;17.90;;;6.10;;
26042;SDS011;13818;52.156;5.382;2022-10-12T08:55:57;17.10;;;5.93;;
26042;SDS011;13818;52.156;5.382;2022-10-12T08:58:27;19.88;;;5.75;;
26042;SDS011;13818;52.156;5.382;2022-10-12T09:01:06;15.18;;;5.55;;
26042;SDS011;13818;52.156;5.382;2022-10-12T09:03:42;15.05;;;5.07;;
26042;SDS011;13818;52.156;5.382;2022-10-12T09:06:17;11.98;;;5.35;;
26042;SDS011;13818;52.156;5.382;2022-10-12T09:08:57;15.75;;;6.13;;
26042;SDS011;13818;52.156;5.382;2022-10-12T09:14:26;18.08;;;5.80;;
26042;SDS011;13818;52.156;5.382;2022-10-12T09:16:57;18.10;;;5.75;;
26042;SDS011;13818;52.156;5.382;2022-10-12T09:19:27;16.98;;;5.85;;
26042;SDS011;13818;52.156;5.382;2022-10-12T09:21:57;21.02;;;6.07;;
26042;SDS011;13818;52.156;5.382;2022-10-12T09:24:25;22.15;;;5.95;;
26042;SDS011;13818;52.156;5.382;2022-10-12T09:26:56;13.45;;;5.38;;
26042;SDS011;13818;52.156;5.382;2022-10-12T09:34:49;15.77;;;5.18;;
26042;SDS011;13818;52.156;5.382;2022-10-12T09:37:17;16.70;;;5.78;;
26042;SDS011;13818;52.156;5.382;2022-10-12T09:39:45;17.27;;;5.15;;
26042;SDS011;13818;52.156;5.382;2022-10-12T09:42:12;14.45;;;5.43;;
26042;SDS011;13818;52.156;5.382;2022-10-12T09:44:39;14.75;;;5.03;;
26042;SDS011;13818;52.156;5.382;2022-10-12T09:47:23;17.23;;;4.90;;
26042;SDS011;13818;52.156;5.382;2022-10-12T09:49:52;16.60;;;5.28;;
26042;SDS011;13818;52.156;5.382;2022-10-12T09:52:23;18.13;;;5.53;;
26042;SDS011;13818;52.156;5.382;2022-10-12T09:54:53;14.70;;;5.75;;
26042;SDS011;13818;52.156;5.382;2022-10-12T09:57:22;14.60;;;4.80;;
26042;SDS011;13818;52.156;5.382;2022-10-12T09:59:51;8.27;;;4.07;;
26042;SDS011;13818;52.156;5.382;2022-10-12T10:02:19;15.00;;;4.35;;
26042;SDS011;13818;52.156;5.382;2022-10-12T10:04:49;12.43;;;3.83;;
26042;SDS011;13818;52.156;5.382;2022-10-12T10:07:21;15.07;;;4.55;;
26042;SDS011;13818;52.156;5.382;2022-10-12T10:12:42;10.95;;;4.10;;
26042;SDS011;13818;52.156;5.382;2022-10-12T10:15:18;15.65;;;4.15;;
26042;SDS011;13818;52.156;5.382;2022-10-12T10:17:49;11.00;;;4.68;;
26042;SDS011;13818;52.156;5.382;2022-10-12T10:20:22;11.20;;;4.57;;
26042;SDS011;13818;52.156;5.382;2022-10-12T10:22:54;8.55;;;4.72;;
26042;SDS011;13818;52.156;5.382;2022-10-12T10:25:22;14.45;;;5.40;;
26042;SDS011;13818;52.156;5.382;2022-10-12T10:27:49;16.70;;;5.15;;
26042;SDS011;13818;52.156;5.382;2022-10-12T10:30:35;15.27;;;4.93;;
26042;SDS011;13818;52.156;5.382;2022-10-12T10:33:07;14.40;;;5.13;;
26042;SDS011;13818;52.156;5.382;2022-10-12T10:35:40;20.38;;;4.82;;
26042;SDS011;13818;52.156;5.382;2022-10-12T10:40:49;13.68;;;4.70;;
26042;SDS011;13818;52.156;5.382;2022-10-12T10:43:18;12.88;;;3.97;;
26042;SDS011;13818;52.156;5.382;2022-10-12T10:45:47;10.57;;;4.60;;
26042;SDS011;13818;52.156;5.382;2022-10-12T10:48:17;11.82;;;4.00;;
26042;SDS011;13818;52.156;5.382;2022-10-12T10:50:49;11.23;;;4.00;;
26042;SDS011;13818;52.156;5.382;2022-10-12T10:53:18;14.65;;;4.18;;
26042;SDS011;13818;52.156;5.382;2022-10-12T10:55:48;16.60;;;3.50;;
26042;SDS011;13818;52.156;5.382;2022-10-12T10:58:19;14.95;;;3.92;;
26042;SDS011;13818;52.156;5.382;2022-10-12T11:00:51;11.48;;;4.60;;
26042;SDS011;13818;52.156;5.382;2022-10-12T11:03:24;8.32;;;3.47;;
26042;SDS011;13818;52.156;5.382;2022-10-12T11:05:57;11.52;;;4.00;;
26042;SDS011;13818;52.156;5.382;2022-10-12T11:08:31;15.38;;;3.88;;
26042;SDS011;13818;52.156;5.382;2022-10-12T11:13:30;15.07;;;4.18;;
26042;SDS011;13818;52.156;5.382;2022-10-12T11:16:01;12.48;;;4.38;;
26042;SDS011;13818;52.156;5.382;2022-10-12T11:18:35;10.68;;;4.60;;
26042;SDS011;13818;52.156;5.382;2022-10-12T11:21:07;14.75;;;4.10;;
26042;SDS011;13818;52.156;5.382;2022-10-12T11:23:39;12.77;;;3.95;;
26042;SDS011;13818;52.156;5.382;2022-10-12T11:26:12;10.52;;;3.33;;
26042;SDS011;13818;52.156;5.382;2022-10-12T11:28:46;12.95;;;3.88;;
26042;SDS011;13818;52.156;5.382;2022-10-12T11:31:16;11.98;;;3.25;;
26042;SDS011;13818;52.156;5.382;2022-10-12T11:33:46;10.07;;;3.75;;
26042;SDS011;13818;52.156;5.382;2022-10-12T11:36:14;7.83;;;3.13;;
26042;SDS011;13818;52.156;5.382;2022-10-12T11:38:44;7.10;;;3.30;;
26042;SDS011;13818;52.156;5.382;2022-10-12T11:41:14;10.27;;;3.58;;
26042;SDS011;13818;52.156;5.382;2022-10-12T11:43:44;7.78;;;2.67;;
26042;SDS011;13818;52.156;5.382;2022-10-12T11:46:14;13.05;;;3.47;;
26042;SDS011;13818;52.156;5.382;2022-10-12T11:48:44;12.02;;;3.47;;
26042;SDS011;13818;52.156;5.382;2022-10-12T11:51:17;16.10;;;4.30;;
26042;SDS011;13818;52.156;5.382;2022-10-12T11:53:51;16.25;;;3.50;;
26042;SDS011;13818;52.156;5.382;2022-10-12T11:58:53;16.17;;;3.50;;
26042;SDS011;13818;52.156;5.382;2022-10-12T12:04:28;7.10;;;2.90;;
26042;SDS011;13818;52.156;5.382;2022-10-12T12:06:57;18.33;;;3.35;;
26042;SDS011;13818;52.156;5.382;2022-10-12T12:12:19;9.40;;;3.05;;
26042;SDS011;13818;52.156;5.382;2022-10-12T12:17:48;11.13;;;2.67;;
26042;SDS011;13818;52.156;5.382;2022-10-12T12:23:31;11.65;;;2.60;;
26042;SDS011;13818;52.156;5.382;2022-10-12T12:26:15;11.18;;;3.15;;
26042;SDS011;13818;52.156;5.382;2022-10-12T12:28:43;8.90;;;3.08;;
26042;SDS011;13818;52.156;5.382;2022-10-12T12:31:12;11.25;;;3.55;;
26042;SDS011;13818;52.156;5.382;2022-10-12T12:33:42;13.57;;;3.35;;
26042;SDS011;13818;52.156;5.382;2022-10-12T12:36:13;11.65;;;3.63;;
26042;SDS011;13818;52.156;5.382;2022-10-12T12:38:52;8.52;;;3.30;;
26042;SDS011;13818;52.156;5.382;2022-10-12T12:41:19;7.80;;;3.70;;
26042;SDS011;13818;52.156;5.382;2022-10-12T12:43:53;14.18;;;4.70;;
26042;SDS011;13818;52.156;5.382;2022-10-12T12:46:22;16.15;;;4.57;;
26042;SDS011;13818;52.156;5.382;2022-10-12T12:48:57;11.15;;;4.70;;
26042;SDS011;13818;52.156;5.382;2022-10-12T12:51:32;10.73;;;4.70;;
26042;SDS011;13818;52.156;5.382;2022-10-12T12:54:03;8.68;;;4.68;;
26042;SDS011;13818;52.156;5.382;2022-10-12T12:56:39;15.77;;;4.95;;
26042;SDS011;13818;52.156;5.382;2022-10-12T12:59:27;11.18;;;5.43;;
26042;SDS011;13818;52.156;5.382;2022-10-12T13:02:26;14.77;;;4.90;;
26042;SDS011;13818;52.156;5.382;2022-10-12T13:05:21;13.27;;;4.53;;
26042;SDS011;13818;52.156;5.382;2022-10-12T13:08:12;11.68;;;4.72;;
26042;SDS011;13818;52.156;5.382;2022-10-12T13:10:52;17.48;;;4.80;;
26042;SDS011;13818;52.156;5.382;2022-10-12T13:13:40;18.23;;;5.03;;
26042;SDS011;13818;52.156;5.382;2022-10-12T13:16:17;14.85;;;4.43;;
26042;SDS011;13818;52.156;5.382;2022-10-12T13:18:56;15.70;;;4.63;;
26042;SDS011;13818;52.156;5.382;2022-10-12T13:21:25;15.43;;;5.30;;
26042;SDS011;13818;52.156;5.382;2022-10-12T13:26:26;16.08;;;6.63;;
26042;SDS011;13818;52.156;5.382;2022-10-12T13:28:55;15.07;;;6.47;;
26042;SDS011;13818;52.156;5.382;2022-10-12T13:31:24;10.27;;;4.68;;
26042;SDS011;13818;52.156;5.382;2022-10-12T13:33:58;13.88;;;5.13;;
26042;SDS011;13818;52.156;5.382;2022-10-12T13:36:31;19.88;;;6.70;;
26042;SDS011;13818;52.156;5.382;2022-10-12T13:39:11;15.95;;;6.35;;
26042;SDS011;13818;52.156;5.382;2022-10-12T13:41:41;18.67;;;7.35;;
26042;SDS011;13818;52.156;5.382;2022-10-12T13:44:16;21.37;;;7.83;;
26042;SDS011;13818;52.156;5.382;2022-10-12T13:46:47;10.57;;;6.05;;
26042;SDS011;13818;52.156;5.382;2022-10-12T13:49:16;19.27;;;7.15;;
26042;SDS011;13818;52.156;5.382;2022-10-12T13:51:44;18.73;;;7.20;;
26042;SDS011;13818;52.156;5.382;2022-10-12T13:54:18;17.30;;;6.77;;
26042;SDS011;13818;52.156;5.382;2022-10-12T13:56:47;18.85;;;7.78;;
26042;SDS011;13818;52.156;5.382;2022-10-12T13:59:17;20.58;;;6.82;;
26042;SDS011;13818;52.156;5.382;2022-10-12T14:01:50;15.98;;;7.15;;
26042;SDS011;13818;52.156;5.382;2022-10-12T14:04:19;19.42;;;7.30;;
26042;SDS011;13818;52.156;5.382;2022-10-12T14:06:46;22.17;;;7.47;;
26042;SDS011;13818;52.156;5.382;2022-10-12T14:09:18;19.70;;;8.05;;
26042;SDS011;13818;52.156;5.382;2022-10-12T14:11:47;20.13;;;8.38;;
26042;SDS011;13818;52.156;5.382;2022-10-12T14:14:18;19.25;;;8.52;;
26042;SDS011;13818;52.156;5.382;2022-10-12T14:16:49;21.95;;;9.20;;
26042;SDS011;13818;52.156;5.382;2022-10-12T14:19:16;18.33;;;8.45;;
26042;SDS011;13818;52.156;5.382;2022-10-12T14:21:44;19.20;;;8.85;;
26042;SDS011;13818;52.156;5.382;2022-10-12T14:24:13;19.92;;;8.25;;
26042;SDS011;13818;52.156;5.382;2022-10-12T14:26:44;19.30;;;8.50;;
26042;SDS011;13818;52.156;5.382;2022-10-12T14:29:25;25.25;;;8.48;;
26042;SDS011;13818;52.156;5.382;2022-10-12T14:31:57;17.70;;;7.57;;
26042;SDS011;13818;52.156;5.382;2022-10-12T14:34:32;18.17;;;7.88;;
26042;SDS011;13818;52.156;5.382;2022-10-12T14:37:02;24.15;;;8.40;;
26042;SDS011;13818;52.156;5.382;2022-10-12T14:39:31;15.30;;;7.28;;
26042;SDS011;13818;52.156;5.382;2022-10-12T14:41:59;22.00;;;7.70;;
26042;SDS011;13818;52.156;5.382;2022-10-12T14:44:28;21.50;;;7.18;;
26042;SDS011;13818;52.156;5.382;2022-10-12T14:46:55;21.52;;;6.60;;
26042;SDS011;13818;52.156;5.382;2022-10-12T14:49:31;16.25;;;7.10;;
26042;SDS011;13818;52.156;5.382;2022-10-12T14:51:59;19.88;;;6.20;;
26042;SDS011;13818;52.156;5.382;2022-10-12T14:54:26;18.85;;;6.60;;
26042;SDS011;13818;52.156;5.382;2022-10-12T14:56:54;17.92;;;7.20;;
26042;SDS011;13818;52.156;5.382;2022-10-12T14:59:36;19.83;;;5.47;;
26042;SDS011;13818;52.156;5.382;2022-10-12T15:02:02;18.42;;;5.38;;
26042;SDS011;13818;52.156;5.382;2022-10-12T15:04:38;12.43;;;5.35;;
26042;SDS011;13818;52.156;5.382;2022-10-12T15:07:07;12.20;;;4.32;;
26042;SDS011;13818;52.156;5.382;2022-10-12T15:09:39;10.85;;;4.40;;
26042;SDS011;13818;52.156;5.382;2022-10-12T15:12:07;19.13;;;4.65;;
26042;SDS011;13818;52.156;5.382;2022-10-12T15:14:35;14.32;;;5.05;;
26042;SDS011;13818;52.156;5.382;2022-10-12T15:17:01;16.02;;;4.55;;
26042;SDS011;13818;52.156;5.382;2022-10-12T15:19:29;12.70;;;4.85;;
26042;SDS011;13818;52.156;5.382;2022-10-12T15:21:55;11.90;;;5.20;;
26042;SDS011;13818;52.156;5.382;2022-10-12T15:24:22;11.20;;;4.32;;
26042;SDS011;13818;52.156;5.382;2022-10-12T15:26:48;14.75;;;4.93;;